Time;durP1;ratioP1;P1;durP2;ratioP2;P2;SDS_P1;SDS_P2;PMS_P1;PMS_P2;Temp;Humidity;BMP_temperature;BMP_pressure;BME280_temperature;BME280_humidity;BME280_pressure;Samples;Min_cycle;Max_cycle;Signal;HPM_P1;HPM_P2
2021/06/08 00:02:17;;;;;;;12.25;10.95;;;21.40;83.30;;;;;;5049100;28;20077;-64
2021/06/08 00:04:42;;;;;;;10.85;9.80;;;21.40;83.30;;;;;;5061351;28;20040;-64
2021/06/08 00:07:08;;;;;;;11.38;9.98;;;21.40;83.80;;;;;;5043074;28;20622;-64
2021/06/08 00:09:34;;;;;;;12.65;10.88;;;21.40;83.70;;;;;;5038033;28;20052;-64
2021/06/08 00:11:59;;;;;;;10.98;9.85;;;21.40;83.90;;;;;;5051370;28;20044;-65
2021/06/08 00:14:26;;;;;;;13.38;9.57;;;21.50;84.80;;;;;;5051809;28;20036;-64
2021/06/08 00:16:51;;;;;;;12.40;10.75;;;21.40;83.50;;;;;;5062139;28;20036;-64
2021/06/08 00:19:17;;;;;;;10.48;9.27;;;21.40;84.00;;;;;;5045827;28;20471;-64
2021/06/08 00:21:42;;;;;;;10.70;9.60;;;21.40;84.20;;;;;;5062627;28;20052;-64
2021/06/08 00:24:08;;;;;;;8.93;8.02;;;21.30;83.90;;;;;;5077829;28;20109;-64
2021/06/08 00:26:35;;;;;;;9.27;8.38;;;21.30;83.10;;;;;;5082862;28;20497;-64
2021/06/08 00:29:01;;;;;;;9.23;8.20;;;21.40;82.60;;;;;;5075293;28;20117;-64
2021/06/08 00:31:27;;;;;;;10.98;8.20;;;21.40;82.60;;;;;;5076646;28;20073;-64
2021/06/08 00:33:53;;;;;;;8.25;7.47;;;21.40;83.10;;;;;;5074459;28;20066;-64
2021/06/08 00:36:19;;;;;;;8.10;6.97;;;21.40;83.10;;;;;;5056670;28;20043;-64
2021/06/08 00:38:45;;;;;;;8.98;7.78;;;21.40;81.10;;;;;;5069175;28;20032;-64
2021/06/08 00:41:11;;;;;;;6.72;6.05;;;21.30;81.30;;;;;;5077179;28;20050;-64
2021/06/08 00:43:37;;;;;;;7.40;6.28;;;21.30;82.00;;;;;;5074470;28;20119;-64
2021/06/08 00:46:03;;;;;;;6.65;5.95;;;21.30;82.30;;;;;;5062905;28;20450;-64
2021/06/08 00:48:29;;;;;;;6.15;5.65;;;21.30;82.10;;;;;;5058475;28;20425;-64
2021/06/08 00:50:56;;;;;;;6.13;5.53;;;21.40;81.60;;;;;;5073613;28;20097;-64
2021/06/08 00:53:22;;;;;;;6.60;6.00;;;21.30;81.90;;;;;;5075779;28;20028;-64
2021/06/08 00:55:48;;;;;;;6.95;6.35;;;21.30;80.20;;;;;;5068590;28;20565;-64
2021/06/08 00:58:14;;;;;;;6.50;5.90;;;21.30;80.70;;;;;;5070688;28;20136;-64
2021/06/08 01:00:39;;;;;;;6.13;5.55;;;21.30;81.10;;;;;;5072777;28;20051;-64
2021/06/08 01:03:05;;;;;;;6.43;5.82;;;21.30;81.40;;;;;;5070798;28;20041;-63
2021/06/08 01:05:31;;;;;;;7.55;6.13;;;21.30;81.50;;;;;;5074349;28;20050;-63
2021/06/08 01:07:57;;;;;;;6.38;5.78;;;21.20;81.80;;;;;;5069619;28;20048;-63
2021/06/08 01:10:22;;;;;;;6.60;5.65;;;21.20;81.40;;;;;;5073470;28;20036;-63
2021/06/08 01:12:48;;;;;;;6.18;5.57;;;21.20;81.00;;;;;;5083360;28;20044;-63
2021/06/08 01:15:14;;;;;;;7.32;6.05;;;21.20;81.40;;;;;;5069426;28;20160;-63
2021/06/08 01:17:40;;;;;;;6.35;5.75;;;21.20;80.90;;;;;;5081928;28;20372;-63
2021/06/08 01:20:07;;;;;;;6.38;5.78;;;21.30;81.60;;;;;;5069098;28;20038;-63
2021/06/08 01:22:33;;;;;;;6.18;5.57;;;21.30;81.90;;;;;;5082751;28;20041;-63
2021/06/08 01:24:59;;;;;;;6.93;5.38;;;21.20;82.50;;;;;;5081331;28;20047;-64
2021/06/08 01:27:26;;;;;;;6.35;5.75;;;21.20;82.60;;;;;;5083259;28;20040;-64
2021/06/08 01:29:53;;;;;;;5.90;5.35;;;21.20;81.60;;;;;;5067228;28;20033;-64
2021/06/08 01:32:22;;;;;;;7.53;6.40;;;21.20;82.10;;;;;;5078657;28;20047;-64
2021/06/08 01:34:49;;;;;;;7.40;6.80;;;21.20;81.80;;;;;;5076506;28;20565;-64
2021/06/08 01:37:16;;;;;;;6.35;5.82;;;21.20;83.50;;;;;;5080371;28;20131;-64
2021/06/08 01:39:42;;;;;;;6.53;5.93;;;21.20;83.50;;;;;;5084168;28;20465;-64
2021/06/08 01:42:09;;;;;;;7.15;6.05;;;21.20;81.70;;;;;;5074344;28;20448;-64
2021/06/08 01:44:35;;;;;;;8.20;6.40;;;21.20;82.20;;;;;;5075221;28;20028;-61
2021/06/08 01:47:01;;;;;;;7.32;6.72;;;21.20;83.30;;;;;;5056396;28;20054;-64
2021/06/08 01:49:27;;;;;;;6.70;6.00;;;21.20;82.80;;;;;;5074179;28;20138;-64
2021/06/08 01:52:06;;;;;;;7.70;6.13;;;21.20;83.10;;;;;;5076055;28;20088;-65
2021/06/08 01:55:04;;;;;;;7.32;6.45;;;21.20;83.00;;;;;;5071550;28;20033;-65
2021/06/08 01:57:48;;;;;;;7.05;6.45;;;21.20;82.40;;;;;;5046139;28;20040;-65
2021/06/08 02:00:41;;;;;;;6.68;5.85;;;21.10;82.90;;;;;;5045315;28;20070;-64
2021/06/08 02:03:27;;;;;;;7.85;7.07;;;21.20;82.20;;;;;;5071498;28;20036;-64
2021/06/08 02:06:12;;;;;;;7.25;6.57;;;21.20;83.60;;;;;;5078275;28;20040;-64
2021/06/08 02:08:41;;;;;;;7.53;6.50;;;21.10;84.10;;;;;;5077488;28;20097;-64
2021/06/08 02:11:15;;;;;;;7.80;6.35;;;21.20;83.10;;;;;;5081739;28;20084;-64
2021/06/08 02:13:49;;;;;;;7.03;5.68;;;21.10;82.50;;;;;;5072486;28;20085;-64
2021/06/08 02:16:36;;;;;;;7.40;6.50;;;21.20;83.20;;;;;;5074724;28;20028;-64
2021/06/08 02:19:02;;;;;;;8.15;6.60;;;21.20;83.20;;;;;;5070770;28;20060;-64
2021/06/08 02:21:35;;;;;;;7.47;6.65;;;21.10;83.80;;;;;;5052396;28;20055;-64
2021/06/08 02:24:02;;;;;;;7.70;7.00;;;21.20;83.80;;;;;;5054383;28;20052;-64
2021/06/08 02:26:29;;;;;;;8.40;6.35;;;21.20;83.70;;;;;;5056694;28;20120;-64
2021/06/08 02:28:56;;;;;;;7.63;6.93;;;21.20;83.50;;;;;;5050705;28;23156;-64
2021/06/08 02:31:23;;;;;;;8.23;6.75;;;21.20;84.00;;;;;;5059241;28;20053;-64
2021/06/08 02:33:50;;;;;;;7.38;6.63;;;21.20;84.40;;;;;;5055020;28;20041;-64
2021/06/08 02:36:17;;;;;;;7.35;6.55;;;21.20;84.50;;;;;;5042108;28;20037;-64
2021/06/08 02:38:45;;;;;;;6.65;6.05;;;21.20;85.10;;;;;;5056090;28;20041;-64
2021/06/08 02:41:12;;;;;;;8.50;6.80;;;21.20;84.70;;;;;;5054036;28;20478;-64
2021/06/08 02:43:39;;;;;;;6.93;6.32;;;21.10;84.70;;;;;;5050883;28;20039;-64
2021/06/08 02:46:07;;;;;;;7.80;7.00;;;21.20;85.30;;;;;;5052653;28;20440;-64
2021/06/08 02:48:34;;;;;;;9.32;7.75;;;21.20;85.10;;;;;;5040708;28;20035;-64
2021/06/08 02:51:00;;;;;;;7.32;6.63;;;21.10;85.00;;;;;;5056672;28;20513;-64
2021/06/08 02:53:27;;;;;;;9.52;6.68;;;21.10;84.60;;;;;;5055279;28;20049;-64
2021/06/08 02:55:54;;;;;;;7.90;7.20;;;21.20;85.10;;;;;;5053875;28;20041;-64
2021/06/08 02:58:21;;;;;;;8.63;6.85;;;21.20;85.30;;;;;;5049861;28;20045;-64
2021/06/08 03:00:48;;;;;;;7.65;6.88;;;21.20;84.40;;;;;;5053955;28;20455;-64
2021/06/08 03:03:17;;;;;;;6.32;5.78;;;21.10;85.90;;;;;;5058759;28;20032;-64
2021/06/08 03:06:10;;;;;;;6.78;6.13;;;21.10;85.10;;;;;;5049156;28;20119;-64
2021/06/08 03:08:41;;;;;;;7.28;6.25;;;21.20;84.70;;;;;;5052187;28;20539;-63
2021/06/08 03:11:13;;;;;;;7.30;6.65;;;21.10;86.60;;;;;;5050519;28;20029;-64
2021/06/08 03:13:39;;;;;;;7.28;6.68;;;21.10;86.20;;;;;;5057463;28;20033;-64
2021/06/08 03:16:08;;;;;;;7.63;6.88;;;21.10;86.70;;;;;;5045140;28;20131;-65
2021/06/08 03:18:35;;;;;;;7.40;6.57;;;21.10;86.50;;;;;;5051900;28;20502;-64
2021/06/08 03:21:12;;;;;;;7.00;6.30;;;21.10;85.40;;;;;;5038359;28;20422;-64
2021/06/08 03:23:43;;;;;;;6.63;6.03;;;21.10;85.60;;;;;;5052783;28;20145;-65
2021/06/08 03:26:10;;;;;;;6.82;6.18;;;21.00;87.00;;;;;;5052555;28;20068;-64
2021/06/08 03:28:39;;;;;;;7.57;6.78;;;21.10;86.80;;;;;;5045332;28;20067;-64
2021/06/08 03:31:06;;;;;;;6.75;5.93;;;21.10;86.50;;;;;;5041362;28;20029;-64
2021/06/08 03:33:33;;;;;;;5.93;5.40;;;21.10;86.10;;;;;;5042400;28;20085;-65
2021/06/08 03:35:59;;;;;;;6.10;5.35;;;21.10;85.70;;;;;;5048968;28;20041;-65
2021/06/08 03:38:27;;;;;;;7.13;5.55;;;21.10;86.10;;;;;;5043942;28;23622;-65
2021/06/08 03:40:54;;;;;;;5.65;5.05;;;21.10;86.60;;;;;;5047313;28;20056;-65
2021/06/08 03:43:20;;;;;;;5.20;4.65;;;21.10;86.30;;;;;;5049461;28;20047;-64
2021/06/08 03:45:47;;;;;;;4.38;3.97;;;21.10;86.30;;;;;;5056643;28;20032;-65
2021/06/08 03:48:15;;;;;;;4.13;3.83;;;21.10;85.40;;;;;;5041689;28;20033;-65
2021/06/08 03:50:43;;;;;;;4.15;3.60;;;21.00;85.40;;;;;;5046208;28;20037;-64
2021/06/08 03:53:09;;;;;;;4.65;4.25;;;21.00;86.10;;;;;;5054515;28;20520;-64
2021/06/08 03:55:35;;;;;;;4.55;4.15;;;21.10;85.60;;;;;;5050185;28;20120;-65
2021/06/08 03:58:09;;;;;;;4.15;3.53;;;21.00;86.20;;;;;;5042065;28;20550;-65
2021/06/08 04:00:36;;;;;;;5.57;4.18;;;21.00;85.00;;;;;;5060176;28;20051;-64
2021/06/08 04:03:09;;;;;;;4.15;3.75;;;21.10;86.00;;;;;;5054329;28;20025;-64
2021/06/08 04:05:36;;;;;;;4.63;4.22;;;21.10;85.50;;;;;;5061474;28;20048;-64
2021/06/08 04:08:03;;;;;;;4.68;4.28;;;21.00;85.80;;;;;;5056126;28;20099;-64
2021/06/08 04:10:29;;;;;;;4.00;3.60;;;21.10;85.60;;;;;;5057164;28;20037;-64
2021/06/08 04:13:02;;;;;;;3.80;3.50;;;21.10;85.10;;;;;;5055322;28;20112;-65
2021/06/08 04:15:29;;;;;;;4.55;4.13;;;21.10;85.30;;;;;;5048488;28;20053;-64
2021/06/08 04:17:55;;;;;;;6.43;4.15;;;21.00;84.50;;;;;;5045109;28;20476;-64
2021/06/08 04:20:21;;;;;;;4.40;4.00;;;21.10;85.10;;;;;;5052853;28;20491;-64
2021/06/08 04:22:47;;;;;;;4.25;3.60;;;21.20;85.80;;;;;;5064290;28;20076;-64
2021/06/08 04:25:16;;;;;;;7.95;4.18;;;21.10;85.30;;;;;;5059919;28;20041;-64
2021/06/08 04:27:42;;;;;;;8.25;4.40;;;21.10;85.90;;;;;;5054741;28;20044;-64
2021/06/08 04:30:10;;;;;;;6.18;3.83;;;21.10;85.50;;;;;;5062971;28;20048;-64
2021/06/08 04:32:36;;;;;;;4.15;3.72;;;21.10;85.90;;;;;;5057535;28;20074;-64
2021/06/08 04:35:03;;;;;;;5.72;4.35;;;21.10;85.60;;;;;;5056714;28;20029;-65
2021/06/08 04:37:30;;;;;;;5.85;4.63;;;21.10;86.30;;;;;;5063100;28;20051;-64
2021/06/08 04:39:55;;;;;;;4.75;4.32;;;21.10;86.20;;;;;;5056537;28;20036;-64
2021/06/08 04:42:21;;;;;;;4.50;4.10;;;21.10;85.30;;;;;;5052795;28;20045;-65
2021/06/08 04:44:49;;;;;;;4.93;4.13;;;21.20;85.80;;;;;;5065277;28;20043;-64
2021/06/08 04:47:20;;;;;;;3.88;3.55;;;21.10;85.30;;;;;;5060635;28;20111;-64
2021/06/08 04:49:46;;;;;;;6.03;4.22;;;21.10;84.40;;;;;;5061439;28;20086;-63
2021/06/08 04:52:12;;;;;;;4.95;4.28;;;21.20;84.50;;;;;;5058211;28;20045;-64
2021/06/08 04:54:39;;;;;;;5.03;4.47;;;21.20;84.80;;;;;;5071643;28;20037;-63
2021/06/08 04:57:06;;;;;;;5.28;4.35;;;21.30;84.50;;;;;;5081652;28;20048;-64
2021/06/08 04:59:44;;;;;;;6.13;3.92;;;21.30;85.10;;;;;;5077399;28;20036;-64
2021/06/08 05:02:16;;;;;;;5.88;4.45;;;21.40;85.00;;;;;;5069543;28;20045;-63
2021/06/08 05:04:43;;;;;;;5.07;4.07;;;21.30;85.20;;;;;;5063826;28;20089;-63
2021/06/08 05:07:13;;;;;;;4.75;3.97;;;21.40;84.40;;;;;;5079562;28;20040;-63
2021/06/08 05:09:46;;;;;;;5.40;4.22;;;21.30;85.10;;;;;;5064679;28;20124;-63
2021/06/08 05:12:13;;;;;;;4.30;3.90;;;21.40;84.50;;;;;;5068322;28;20400;-63
2021/06/08 05:14:46;;;;;;;6.72;4.90;;;21.40;84.40;;;;;;5045800;28;20331;-63
2021/06/08 05:17:18;;;;;;;5.93;5.43;;;21.50;84.40;;;;;;5068687;28;20032;-63
2021/06/08 05:19:49;;;;;;;6.72;5.38;;;21.50;84.40;;;;;;5060708;28;20063;-63
2021/06/08 05:22:22;;;;;;;5.22;4.72;;;21.40;83.30;;;;;;5071922;28;20040;-64
2021/06/08 05:24:53;;;;;;;7.18;4.55;;;21.60;83.00;;;;;;5067658;28;20106;-64
2021/06/08 05:27:20;;;;;;;5.30;4.57;;;21.60;83.80;;;;;;5078650;28;20455;-64
2021/06/08 05:29:46;;;;;;;6.15;3.25;;;21.60;83.20;;;;;;5059245;28;20045;-63
2021/06/08 05:32:13;;;;;;;4.88;4.47;;;21.60;83.20;;;;;;5068290;28;20079;-63
2021/06/08 05:34:43;;;;;;;5.88;4.38;;;21.70;83.20;;;;;;5064316;28;20043;-63
2021/06/08 05:37:14;;;;;;;6.00;5.22;;;21.80;83.40;;;;;;5072501;28;20094;-62
2021/06/08 05:39:40;;;;;;;6.57;5.07;;;21.80;83.00;;;;;;5058348;28;20078;-63
2021/06/08 05:42:08;;;;;;;5.93;4.95;;;21.90;83.20;;;;;;5069043;28;20579;-62
2021/06/08 05:44:35;;;;;;;6.20;4.95;;;21.90;82.90;;;;;;5065774;28;20102;-64
2021/06/08 05:47:05;;;;;;;5.57;5.07;;;21.90;82.00;;;;;;5062293;28;20033;-64
2021/06/08 05:49:32;;;;;;;7.93;5.40;;;21.90;81.30;;;;;;5060765;28;20398;-63
2021/06/08 05:51:59;;;;;;;5.63;5.13;;;22.00;81.10;;;;;;5069823;28;20054;-63
2021/06/08 05:54:27;;;;;;;6.88;5.38;;;21.90;81.40;;;;;;5049267;28;20699;-63
2021/06/08 05:56:53;;;;;;;5.20;4.70;;;22.10;81.40;;;;;;5065710;28;20028;-63
2021/06/08 05:59:19;;;;;;;8.48;7.25;;;22.10;81.80;;;;;;5066818;28;20040;-64
2021/06/08 06:01:45;;;;;;;8.95;7.40;;;22.10;82.10;;;;;;5058705;28;20417;-64
2021/06/08 06:04:12;;;;;;;7.50;6.75;;;22.10;81.30;;;;;;5068387;28;20040;-64
2021/06/08 06:06:40;;;;;;;8.27;6.78;;;22.10;80.50;;;;;;5057552;28;20093;-64
2021/06/08 06:09:06;;;;;;;8.50;6.90;;;22.20;80.50;;;;;;5073600;28;20036;-65
2021/06/08 06:11:32;;;;;;;9.35;6.97;;;22.10;80.70;;;;;;5059172;28;20029;-64
2021/06/08 06:14:02;;;;;;;8.80;5.00;;;22.20;79.50;;;;;;5063152;28;20394;-65
2021/06/08 06:16:31;;;;;;;6.35;5.75;;;22.10;78.60;;;;;;5055260;28;20500;-64
2021/06/08 06:19:01;;;;;;;5.65;4.85;;;22.20;78.20;;;;;;5068113;28;20044;-64
2021/06/08 06:21:27;;;;;;;4.32;3.40;;;22.20;78.40;;;;;;5045259;28;20057;-64
2021/06/08 06:23:53;;;;;;;5.75;3.25;;;22.20;78.50;;;;;;5058619;28;20509;-65
2021/06/08 06:26:19;;;;;;;4.22;3.00;;;22.20;76.60;;;;;;5055336;28;20041;-65
2021/06/08 06:28:46;;;;;;;4.50;2.58;;;22.20;76.40;;;;;;5058956;28;20634;-65
2021/06/08 06:31:12;;;;;;;2.67;2.47;;;22.10;76.20;;;;;;5059065;28;20059;-65
2021/06/08 06:33:43;;;;;;;2.88;2.30;;;22.10;75.40;;;;;;5050820;28;20505;-64
2021/06/08 06:36:10;;;;;;;3.17;2.80;;;22.00;75.00;;;;;;5042252;28;20037;-65
2021/06/08 06:38:38;;;;;;;4.10;2.80;;;22.00;74.70;;;;;;5046086;28;20036;-61
2021/06/08 06:41:07;;;;;;;4.75;3.17;;;22.00;74.30;;;;;;5057264;28;20513;-63
2021/06/08 06:43:35;;;;;;;3.78;2.55;;;22.10;72.60;;;;;;5054413;28;20044;-64
2021/06/08 06:46:00;;;;;;;4.05;3.63;;;22.10;74.70;;;;;;5056622;28;20520;-64
2021/06/08 06:48:26;;;;;;;5.05;2.85;;;22.20;74.70;;;;;;5054438;28;20116;-64
2021/06/08 06:50:53;;;;;;;5.28;3.45;;;22.30;72.80;;;;;;5058905;28;20394;-64
2021/06/08 06:53:20;;;;;;;5.05;3.13;;;22.40;73.60;;;;;;5054426;28;20044;-64
2021/06/08 06:55:52;;;;;;;3.22;2.60;;;22.50;73.30;;;;;;5031871;28;20502;-64
2021/06/08 06:58:20;;;;;;;2.85;2.08;;;22.60;72.00;;;;;;5054693;28;20043;-64
2021/06/08 07:00:46;;;;;;;2.08;1.83;;;22.60;72.00;;;;;;5042842;28;20055;-63
2021/06/08 07:03:14;;;;;;;2.53;2.33;;;22.60;72.30;;;;;;5035506;28;20064;-63
2021/06/08 07:05:42;;;;;;;4.13;2.55;;;22.70;71.90;;;;;;5039262;28;20573;-63
2021/06/08 07:08:08;;;;;;;4.53;2.50;;;22.70;71.80;;;;;;5037754;28;20742;-63
2021/06/08 07:10:34;;;;;;;4.97;2.60;;;22.70;70.50;;;;;;5065070;28;20045;-64
2021/06/08 07:13:05;;;;;;;7.25;3.15;;;22.70;69.90;;;;;;5045370;28;20043;-64
2021/06/08 07:15:32;;;;;;;5.90;3.08;;;22.70;70.20;;;;;;5056832;28;20117;-64
2021/06/08 07:17:58;;;;;;;3.58;3.10;;;22.60;69.90;;;;;;5060185;28;20048;-64
2021/06/08 07:20:25;;;;;;;3.97;2.45;;;22.70;69.80;;;;;;5047460;28;20036;-63
2021/06/08 07:22:52;;;;;;;4.95;2.40;;;22.70;70.50;;;;;;5070345;28;20064;-64
2021/06/08 07:25:19;;;;;;;3.97;2.28;;;22.70;69.30;;;;;;5065980;28;20394;-64
2021/06/08 07:27:46;;;;;;;2.80;1.98;;;22.70;69.10;;;;;;5067720;28;20091;-63
2021/06/08 07:30:14;;;;;;;3.95;2.47;;;22.80;70.20;;;;;;5054149;28;20051;-63
2021/06/08 07:32:42;;;;;;;4.45;3.20;;;22.80;70.00;;;;;;5062533;28;20040;-65
2021/06/08 07:35:27;;;;;;;2.97;2.70;;;22.70;70.10;;;;;;5062096;28;20051;-64
2021/06/08 07:37:54;;;;;;;5.22;3.35;;;22.70;70.40;;;;;;5043805;28;20431;-64
2021/06/08 07:40:27;;;;;;;5.03;2.65;;;22.80;68.60;;;;;;5057627;28;20112;-63
2021/06/08 07:42:59;;;;;;;2.78;2.58;;;22.90;69.90;;;;;;5061242;28;20052;-64
2021/06/08 07:45:39;;;;;;;5.10;3.20;;;22.90;69.30;;;;;;5056606;28;20055;-64
2021/06/08 07:48:07;;;;;;;6.03;3.00;;;22.90;66.00;;;;;;5070867;28;20043;-64
2021/06/08 07:50:38;;;;;;;5.80;2.80;;;23.00;67.30;;;;;;5072948;28;20097;-63
2021/06/08 07:53:05;;;;;;;4.95;4.32;;;23.10;67.40;;;;;;5057691;28;20075;-64
2021/06/08 07:55:31;;;;;;;7.43;5.18;;;23.10;67.30;;;;;;5057187;28;20063;-64
2021/06/08 07:57:57;;;;;;;8.18;4.93;;;23.30;67.10;;;;;;5064600;28;20928;-64
2021/06/08 08:00:23;;;;;;;5.57;4.65;;;23.40;67.10;;;;;;5058260;28;20041;-63
2021/06/08 08:02:53;;;;;;;8.43;6.03;;;23.50;66.70;;;;;;5069467;28;20040;-64
2021/06/08 08:05:22;;;;;;;6.78;4.97;;;23.60;67.10;;;;;;5054002;28;20032;-64
2021/06/08 08:07:49;;;;;;;5.13;4.30;;;23.70;65.30;;;;;;5065098;28;20037;-64
2021/06/08 08:10:15;;;;;;;7.15;4.95;;;23.80;66.00;;;;;;5059032;28;20047;-64
2021/06/08 08:12:42;;;;;;;9.90;5.68;;;23.80;65.40;;;;;;5057538;28;20509;-64
2021/06/08 08:15:09;;;;;;;6.82;5.00;;;23.80;63.80;;;;;;5065788;28;20404;-63
2021/06/08 08:17:36;;;;;;;7.07;5.43;;;23.90;65.00;;;;;;5060344;28;20040;-63
2021/06/08 08:20:05;;;;;;;7.80;6.10;;;24.10;65.10;;;;;;5066320;28;20044;-63
2021/06/08 08:22:31;;;;;;;10.13;9.07;;;24.30;65.40;;;;;;5075364;28;20134;-64
2021/06/08 08:24:57;;;;;;;11.63;9.50;;;24.50;65.30;;;;;;5080174;28;21058;-63
2021/06/08 08:27:25;;;;;;;8.80;7.57;;;24.60;64.50;;;;;;5064574;28;20207;-64
2021/06/08 08:29:51;;;;;;;12.68;8.60;;;24.60;64.00;;;;;;5052324;28;20032;-64
2021/06/08 08:32:18;;;;;;;8.57;7.35;;;24.60;64.20;;;;;;5069306;28;20512;-64
2021/06/08 08:34:44;;;;;;;9.57;7.90;;;24.70;63.90;;;;;;5074020;28;20045;-64
2021/06/08 08:37:09;;;;;;;13.50;8.57;;;24.60;63.60;;;;;;5056989;28;20043;-63
2021/06/08 08:39:35;;;;;;;10.65;9.43;;;24.80;64.50;;;;;;5080491;28;20032;-63
2021/06/08 08:42:01;;;;;;;12.95;11.57;;;24.80;64.60;;;;;;5076098;28;20123;-64
2021/06/08 08:44:27;;;;;;;12.93;10.38;;;24.70;64.70;;;;;;5066108;28;20044;-64
2021/06/08 08:46:53;;;;;;;12.18;11.00;;;24.70;65.40;;;;;;5070501;28;20078;-64
2021/06/08 08:49:19;;;;;;;13.85;11.45;;;24.60;66.40;;;;;;5061486;28;20755;-65
2021/06/08 08:51:47;;;;;;;13.57;11.38;;;24.40;66.00;;;;;;5066726;28;20052;-63
2021/06/08 08:54:13;;;;;;;12.07;11.00;;;24.50;66.00;;;;;;5060038;28;20075;-63
2021/06/08 08:56:40;;;;;;;12.65;11.35;;;24.50;66.40;;;;;;5055580;28;20497;-64
2021/06/08 08:59:15;;;;;;;13.48;11.77;;;24.50;65.70;;;;;;5077818;28;20152;-64
2021/06/08 09:01:43;;;;;;;11.40;10.20;;;24.60;64.40;;;;;;5079860;28;20071;-64
2021/06/08 09:04:10;;;;;;;15.68;10.57;;;24.60;66.20;;;;;;5074130;28;20124;-64
2021/06/08 09:06:36;;;;;;;13.23;10.90;;;24.60;66.00;;;;;;5078742;28;20086;-64
2021/06/08 09:09:08;;;;;;;13.20;10.82;;;24.60;65.70;;;;;;5067208;28;20047;-64
2021/06/08 09:11:40;;;;;;;12.55;11.25;;;24.70;65.30;;;;;;5066956;28;20501;-64
2021/06/08 09:14:06;;;;;;;12.15;10.88;;;24.70;64.90;;;;;;5059328;28;20051;-64
2021/06/08 09:16:33;;;;;;;12.13;10.93;;;24.80;65.20;;;;;;5073217;28;20040;-65
2021/06/08 09:19:04;;;;;;;14.88;12.02;;;24.80;64.00;;;;;;5063545;28;20075;-63
2021/06/08 09:21:32;;;;;;;14.27;11.93;;;24.70;63.90;;;;;;5071241;28;20044;-63
2021/06/08 09:24:24;;;;;;;15.90;11.30;;;24.50;65.50;;;;;;5076283;28;20051;-63
2021/06/08 09:26:51;;;;;;;12.75;11.45;;;24.60;65.60;;;;;;5057355;28;20052;-63
2021/06/08 09:29:43;;;;;;;14.60;11.68;;;24.70;65.30;;;;;;5060069;28;20041;-63
2021/06/08 09:32:29;;;;;;;14.20;12.73;;;24.80;63.50;;;;;;5084143;28;20041;-63
2021/06/08 09:35:00;;;;;;;13.57;12.18;;;24.70;63.40;;;;;;5061738;28;20132;-63
2021/06/08 09:37:35;;;;;;;13.00;11.65;;;24.70;63.70;;;;;;5067147;28;20566;-63
2021/06/08 09:40:02;;;;;;;13.63;11.98;;;24.70;64.00;;;;;;5056088;28;20047;-63
2021/06/08 09:42:29;;;;;;;12.07;10.88;;;24.60;64.10;;;;;;5074538;28;20044;-64
2021/06/08 09:45:11;;;;;;;13.02;10.63;;;24.80;64.20;;;;;;5062080;28;20033;-63
2021/06/08 09:47:38;;;;;;;13.82;11.40;;;24.80;63.40;;;;;;5059840;28;20040;-64
2021/06/08 09:50:27;;;;;;;14.73;11.20;;;24.90;64.50;;;;;;5059782;28;20036;-63
2021/06/08 09:53:14;;;;;;;13.00;11.13;;;24.90;63.30;;;;;;5040677;28;20037;-66
2021/06/08 09:55:59;;;;;;;12.70;11.48;;;25.10;62.70;;;;;;5061750;28;20165;-64
2021/06/08 09:58:27;;;;;;;10.75;9.70;;;25.20;61.20;;;;;;5054931;28;20043;-64
2021/06/08 10:01:12;;;;;;;13.48;12.07;;;25.30;62.10;;;;;;5062921;28;20056;-63
2021/06/08 10:03:45;;;;;;;11.88;10.57;;;25.40;61.10;;;;;;5062656;28;20041;-63
2021/06/08 10:06:21;;;;;;;12.85;11.48;;;25.40;62.50;;;;;;5056955;28;20044;-59
2021/06/08 10:08:55;;;;;;;14.75;12.68;;;25.40;61.80;;;;;;5039862;28;20058;-59
2021/06/08 10:11:30;;;;;;;14.63;11.75;;;25.60;60.90;;;;;;5065834;28;20036;-59
2021/06/08 10:14:07;;;;;;;13.05;10.85;;;25.70;60.00;;;;;;5074210;28;20048;-59
2021/06/08 10:16:33;;;;;;;12.60;11.27;;;25.60;59.90;;;;;;5074328;28;20378;-60
2021/06/08 10:19:01;;;;;;;11.77;10.18;;;25.60;60.00;;;;;;5078794;28;20052;-62
2021/06/08 10:21:39;;;;;;;13.95;12.73;;;25.70;60.10;;;;;;5056532;28;20060;-62
2021/06/08 10:24:05;;;;;;;13.65;11.75;;;25.80;58.00;;;;;;5060485;28;20715;-62
2021/06/08 10:26:34;;;;;;;13.25;11.85;;;25.80;59.50;;;;;;5062516;28;20135;-62
2021/06/08 10:29:04;;;;;;;16.67;12.13;;;25.80;59.30;;;;;;5062950;28;20490;-62
2021/06/08 10:31:30;;;;;;;11.10;9.88;;;26.00;58.10;;;;;;5053440;28;20371;-62
2021/06/08 10:33:57;;;;;;;10.00;8.43;;;26.10;59.20;;;;;;5063003;28;20709;-62
2021/06/08 10:36:26;;;;;;;9.98;8.98;;;26.20;57.60;;;;;;5069372;28;20481;-62
2021/06/08 10:38:52;;;;;;;8.90;8.20;;;26.30;55.90;;;;;;5065745;28;20035;-62
2021/06/08 10:41:18;;;;;;;8.20;7.25;;;26.20;56.70;;;;;;5057544;28;20049;-62
2021/06/08 10:43:44;;;;;;;10.05;8.40;;;26.40;55.00;;;;;;5064685;28;20454;-61
2021/06/08 10:46:34;;;;;;;11.20;9.23;;;26.30;55.70;;;;;;5063532;28;20152;-62
2021/06/08 10:49:01;;;;;;;9.90;8.90;;;26.60;54.30;;;;;;5044740;28;20048;-62
2021/06/08 10:51:29;;;;;;;8.73;7.93;;;26.80;54.50;;;;;;5062951;28;20037;-62
2021/06/08 10:53:56;;;;;;;9.52;8.57;;;27.80;54.60;;;;;;5059890;28;20450;-62
2021/06/08 10:56:29;;;;;;;11.50;9.63;;;29.30;53.10;;;;;;5074275;28;20089;-63
2021/06/08 10:59:04;;;;;;;10.97;9.97;;;30.10;49.30;;;;;;5073924;28;20060;-62
2021/06/08 11:01:42;;;;;;;10.63;9.57;;;30.60;46.30;;;;;;5058165;28;20729;-62
2021/06/08 11:04:15;;;;;;;9.25;8.38;;;30.50;45.20;;;;;;5055939;28;20051;-62
2021/06/08 11:06:57;;;;;;;10.88;9.88;;;30.70;44.50;;;;;;5075868;28;20043;-62
2021/06/08 11:09:22;;;;;;;10.63;9.60;;;31.20;45.10;;;;;;4995899;28;20040;-62
2021/06/08 11:11:59;;;;;;;8.43;7.60;;;31.20;42.20;;;;;;5061283;28;20040;-62
2021/06/08 11:14:31;;;;;;;8.88;7.45;;;31.30;42.50;;;;;;5061693;28;20040;-62
2021/06/08 11:16:58;;;;;;;8.10;7.40;;;31.20;41.60;;;;;;5069345;28;20051;-62
2021/06/08 11:19:45;;;;;;;10.60;9.57;;;31.30;41.90;;;;;;5057609;28;20045;-62
2021/06/08 11:22:16;;;;;;;8.82;8.05;;;31.90;40.10;;;;;;5062252;28;20053;-62
2021/06/08 11:24:44;;;;;;;10.32;9.43;;;31.90;41.90;;;;;;5069115;28;20037;-63
2021/06/08 11:27:10;;;;;;;9.25;8.45;;;31.90;41.40;;;;;;5074664;28;20074;-63
2021/06/08 11:29:47;;;;;;;9.45;8.50;;;31.70;42.20;;;;;;5063513;28;20033;-62
2021/06/08 11:32:37;;;;;;;9.15;8.45;;;32.40;41.20;;;;;;5066737;28;20044;-62
2021/06/08 11:35:16;;;;;;;9.15;8.23;;;31.50;39.70;;;;;;5001143;28;20045;-61
2021/06/08 11:38:08;;;;;;;11.93;10.93;;;31.50;41.60;;;;;;5065028;28;20375;-61
2021/06/08 11:40:39;;;;;;;11.35;10.32;;;30.70;42.90;;;;;;5009767;28;20044;-62
2021/06/08 11:43:10;;;;;;;10.27;9.38;;;30.50;42.60;;;;;;5075261;28;20153;-61
2021/06/08 11:45:38;;;;;;;11.30;10.38;;;30.90;43.70;;;;;;5049978;28;20028;-62
2021/06/08 11:48:24;;;;;;;11.10;10.10;;;30.10;43.90;;;;;;5062656;28;20063;-61
2021/06/08 11:50:50;;;;;;;9.02;8.20;;;29.80;44.30;;;;;;5042940;28;20430;-61
2021/06/08 11:53:16;;;;;;;10.98;9.98;;;30.40;44.60;;;;;;5057589;28;20079;-61
2021/06/08 11:55:45;;;;;;;9.50;8.65;;;30.50;44.10;;;;;;5058658;28;20040;-61
2021/06/08 11:58:31;;;;;;;43.80;39.05;;;30.60;43.90;;;;;;5059724;28;20116;-61
2021/06/08 12:00:57;;;;;;;18.33;16.42;;;30.70;43.70;;;;;;5044719;28;20044;-61
2021/06/08 12:03:31;;;;;;;11.93;10.88;;;30.20;45.10;;;;;;5079817;28;20037;-61
2021/06/08 12:05:59;;;;;;;9.40;8.60;;;30.00;44.00;;;;;;5060542;28;20045;-61
2021/06/08 12:08:27;;;;;;;10.10;9.18;;;30.20;45.10;;;;;;5067030;28;20097;-61
2021/06/08 12:10:53;;;;;;;9.60;8.75;;;30.40;43.40;;;;;;5071883;28;20110;-62
2021/06/08 12:13:33;;;;;;;8.52;7.55;;;29.80;44.40;;;;;;5075860;28;20044;-61
2021/06/08 12:15:59;;;;;;;9.57;8.77;;;30.00;45.80;;;;;;5068390;28;20056;-62
2021/06/08 12:18:34;;;;;;;8.90;8.10;;;29.90;45.10;;;;;;5076395;28;20078;-61
2021/06/08 12:21:02;;;;;;;8.15;7.38;;;30.10;42.90;;;;;;5062558;28;20118;-60
2021/06/08 12:23:35;;;;;;;9.73;8.88;;;29.80;44.20;;;;;;5055751;28;20049;-61
2021/06/08 12:26:14;;;;;;;10.10;9.07;;;29.60;43.20;;;;;;5051425;28;20047;-60
2021/06/08 12:28:43;;;;;;;11.93;10.88;;;29.20;45.00;;;;;;5045633;28;20036;-61
2021/06/08 12:31:18;;;;;;;10.95;10.05;;;28.60;46.20;;;;;;5053542;28;20045;-61
2021/06/08 12:33:45;;;;;;;11.02;10.02;;;28.30;46.80;;;;;;5054645;28;20041;-60
2021/06/08 12:36:11;;;;;;;11.55;10.45;;;27.90;47.60;;;;;;5055490;28;20032;-61
2021/06/08 12:38:57;;;;;;;12.77;11.55;;;27.80;48.20;;;;;;5050552;28;20403;-62
2021/06/08 12:41:28;;;;;;;10.70;9.57;;;27.70;48.20;;;;;;4985870;28;20041;-61
2021/06/08 12:43:58;;;;;;;12.02;10.93;;;27.50;48.40;;;;;;5057122;28;20498;-61
2021/06/08 12:46:38;;;;;;;11.88;10.68;;;27.50;48.10;;;;;;5049249;28;20080;-61
2021/06/08 12:49:12;;;;;;;11.93;9.75;;;27.20;48.40;;;;;;5057587;28;20045;-61
2021/06/08 12:51:46;;;;;;;11.43;10.13;;;27.10;49.20;;;;;;5042784;28;20040;-62
2021/06/08 12:54:38;;;;;;;11.57;8.85;;;26.90;50.00;;;;;;5046843;28;20029;-61
2021/06/08 12:57:28;;;;;;;10.05;9.05;;;26.80;50.00;;;;;;5027522;28;20155;-61